Pelham, New York
Current Conditions -  °F | °C
As of 6:51 PM on Thursday 18 Dec 2014 (Local Time) from KLGA Reporting Station
Broken Clouds Broken Clouds  
Wind Chill: 30°   Ceiling: 3300
Heat Index: 39°   Visibility: 10mi
Dew Point: 27°   Wind: 18mph
Humidity: 62%   Direction: 330°NNW
Pressure: 29.96"   Gusts: NA
Location:  40.91°N, 73.81°W
Report Text: KLGA 182351Z 33016KT 10SM BKN033 04/M03 A2996 RMK AO2 SLP145 T00391028 10056 20039 51002
Loading
Personal Weather Stations






























Interactive Weather Map New forecast layout! Learn more

10-Day Weather Forecast

Advertisements
Track Severe Weather on mobile